createdAt,value
2022-07-29T00:01:20.727Z,1.60
2022-07-29T00:03:49.175Z,1.20
2022-07-29T00:06:18.841Z,1.40
2022-07-29T00:08:46.975Z,1.43
2022-07-29T00:11:15.488Z,1.50
2022-07-29T00:13:46.499Z,1.50
2022-07-29T00:16:18.862Z,1.50
2022-07-29T00:18:47.356Z,1.40
2022-07-29T00:21:15.466Z,1.67
2022-07-29T00:23:45.467Z,1.50
2022-07-29T00:26:13.525Z,1.50
2022-07-29T00:28:41.459Z,1.70
2022-07-29T00:31:10.083Z,1.40
2022-07-29T00:33:38.176Z,1.60
2022-07-29T00:36:05.687Z,2.03
2022-07-29T00:38:33.718Z,1.73
2022-07-29T00:41:03.301Z,1.70
2022-07-29T00:43:31.480Z,1.80
2022-07-29T00:45:59.482Z,1.70
2022-07-29T00:48:27.530Z,1.70
2022-07-29T00:50:55.821Z,1.50
2022-07-29T00:53:24.080Z,1.40
2022-07-29T00:55:52.490Z,1.37
2022-07-29T00:58:22.383Z,1.60
2022-07-29T01:00:50.472Z,1.43
2022-07-29T01:03:18.861Z,1.53
2022-07-29T01:05:51.459Z,1.50
2022-07-29T01:08:20.889Z,1.53
2022-07-29T01:10:49.855Z,1.87
2022-07-29T01:13:18.718Z,1.60
2022-07-29T01:15:53.513Z,1.40
2022-07-29T01:18:30.660Z,1.77
2022-07-29T01:21:19.212Z,1.40
2022-07-29T01:24:01.468Z,1.50
2022-07-29T01:26:48.995Z,1.50
2022-07-29T01:29:36.155Z,1.60
2022-07-29T01:32:20.269Z,1.57
2022-07-29T01:35:02.193Z,1.70
2022-07-29T01:37:35.449Z,1.60
2022-07-29T01:40:06.886Z,1.80
2022-07-29T01:42:41.321Z,1.70
2022-07-29T01:45:15.065Z,2.03
2022-07-29T01:47:48.689Z,1.53
2022-07-29T01:50:20.063Z,1.93
2022-07-29T01:52:56.322Z,1.53
2022-07-29T01:55:31.034Z,1.70
2022-07-29T01:58:00.967Z,1.80
2022-07-29T02:00:33.467Z,1.60
2022-07-29T02:03:04.736Z,1.60
2022-07-29T02:05:34.832Z,1.87
2022-07-29T02:08:04.310Z,1.80
2022-07-29T02:10:35.139Z,1.70
2022-07-29T02:13:04.839Z,1.60
2022-07-29T02:15:36.359Z,1.80
2022-07-29T02:18:09.267Z,1.67
2022-07-29T02:20:38.549Z,2.00
2022-07-29T02:23:07.979Z,2.03
2022-07-29T02:25:38.118Z,2.23
2022-07-29T02:28:08.621Z,1.60
2022-07-29T02:30:42.697Z,1.90
2022-07-29T02:33:12.705Z,1.90
2022-07-29T02:35:43.052Z,1.77
2022-07-29T02:38:31.978Z,1.53
2022-07-29T02:41:02.132Z,1.80
2022-07-29T02:43:32.760Z,1.73
2022-07-29T02:46:04.738Z,1.80
2022-07-29T02:48:46.244Z,1.70
2022-07-29T02:51:43.449Z,1.87
2022-07-29T02:54:10.188Z,1.67
2022-07-29T02:56:40.240Z,1.70
2022-07-29T02:59:12.278Z,1.83
2022-07-29T03:01:45.606Z,1.97
2022-07-29T03:04:16.943Z,1.80
2022-07-29T03:06:46.704Z,1.80
2022-07-29T03:09:17.044Z,2.00
2022-07-29T03:11:49.754Z,2.00
2022-07-29T03:14:21.278Z,1.83
2022-07-29T03:16:52.664Z,1.70
2022-07-29T03:19:22.517Z,2.53
2022-07-29T03:21:51.206Z,1.87
2022-07-29T03:24:33.614Z,1.80
2022-07-29T03:27:02.573Z,1.97
2022-07-29T03:29:33.651Z,1.93
2022-07-29T03:32:07.432Z,2.23
2022-07-29T03:34:38.444Z,2.00
2022-07-29T03:37:07.270Z,2.00
2022-07-29T03:39:38.922Z,2.00
2022-07-29T03:42:09.017Z,1.80
2022-07-29T03:44:38.248Z,1.70
2022-07-29T03:47:10.229Z,1.97
2022-07-29T03:49:40.033Z,1.60
2022-07-29T03:52:08.281Z,1.90
2022-07-29T03:54:36.621Z,2.00
2022-07-29T03:57:07.685Z,2.40
2022-07-29T03:59:36.737Z,2.00
2022-07-29T04:02:10.715Z,1.93
2022-07-29T04:04:39.165Z,2.00
2022-07-29T04:07:07.399Z,2.37
2022-07-29T04:09:35.428Z,3.00
2022-07-29T04:12:04.542Z,2.73
2022-07-29T04:14:34.320Z,2.00
2022-07-29T04:17:02.900Z,2.10
2022-07-29T04:19:33.257Z,2.00
2022-07-29T04:22:02.479Z,2.10
2022-07-29T04:24:30.599Z,2.03
2022-07-29T04:26:58.844Z,1.80
2022-07-29T04:29:27.021Z,1.90
2022-07-29T04:31:55.163Z,2.40
2022-07-29T04:34:23.286Z,2.13
2022-07-29T04:36:58.216Z,2.20
2022-07-29T04:39:29.692Z,2.00
2022-07-29T04:41:59.142Z,2.63
2022-07-29T04:44:28.995Z,2.03
2022-07-29T04:46:58.743Z,2.20
2022-07-29T04:49:27.248Z,1.80
2022-07-29T04:51:56.917Z,2.00
2022-07-29T04:54:25.519Z,2.30
2022-07-29T04:56:54.592Z,2.07
2022-07-29T04:59:22.643Z,1.97
2022-07-29T05:01:52.998Z,1.80
2022-07-29T05:04:21.478Z,1.80
2022-07-29T05:06:50.168Z,2.00
2022-07-29T05:09:21.281Z,1.70
2022-07-29T05:11:49.375Z,1.60
2022-07-29T05:14:18.020Z,1.63
2022-07-29T05:16:46.629Z,1.63
2022-07-29T05:19:14.935Z,1.70
2022-07-29T05:21:43.814Z,1.57
2022-07-29T05:24:12.533Z,1.50
2022-07-29T05:26:42.378Z,2.10
2022-07-29T05:29:42.813Z,1.70
2022-07-29T05:31:59.438Z,1.63
2022-07-29T05:34:28.392Z,1.67
2022-07-29T05:36:56.414Z,2.07
2022-07-29T05:39:47.380Z,1.60
2022-07-29T05:42:14.662Z,1.60
2022-07-29T05:44:45.391Z,1.67
2022-07-29T05:47:13.809Z,1.73
2022-07-29T05:49:42.166Z,1.60
2022-07-29T05:52:10.486Z,1.47
2022-07-29T05:54:38.670Z,2.00
2022-07-29T05:57:07.436Z,1.70
2022-07-29T05:59:40.919Z,1.90
2022-07-29T06:02:15.852Z,1.70
2022-07-29T06:04:44.169Z,1.90
2022-07-29T06:07:13.509Z,1.50
2022-07-29T06:09:41.825Z,1.70
2022-07-29T06:12:13.834Z,1.80
2022-07-29T06:14:43.703Z,1.60
2022-07-29T06:17:12.764Z,2.07
2022-07-29T06:19:41.241Z,2.23
2022-07-29T06:22:10.910Z,1.80
2022-07-29T06:24:42.525Z,1.80
2022-07-29T06:27:11.202Z,1.70
2022-07-29T06:29:39.795Z,1.83
2022-07-29T06:32:10.554Z,1.60
2022-07-29T06:34:39.071Z,1.80
2022-07-29T06:37:11.236Z,2.00
2022-07-29T06:39:44.358Z,2.23
2022-07-29T06:42:12.637Z,2.10
2022-07-29T06:44:40.906Z,1.90
2022-07-29T06:47:10.842Z,1.90
2022-07-29T06:49:39.187Z,2.10
2022-07-29T06:52:08.449Z,1.93
2022-07-29T06:54:40.070Z,1.57
2022-07-29T06:57:08.823Z,1.80
2022-07-29T06:59:38.084Z,2.10
2022-07-29T07:02:08.429Z,1.70
2022-07-29T07:04:38.671Z,1.70
2022-07-29T07:07:07.042Z,1.60
2022-07-29T07:09:40.044Z,1.80
2022-07-29T07:12:10.186Z,1.83
2022-07-29T07:14:38.822Z,1.57
2022-07-29T07:17:09.276Z,1.97
2022-07-29T07:19:40.216Z,2.10
2022-07-29T07:22:11.284Z,1.87
2022-07-29T07:24:41.294Z,1.90
2022-07-29T07:27:10.025Z,1.97
2022-07-29T07:29:44.327Z,1.87
2022-07-29T07:32:14.583Z,1.90
2022-07-29T07:34:44.620Z,2.40
2022-07-29T07:37:13.344Z,2.00
2022-07-29T07:39:41.649Z,1.80
2022-07-29T07:42:15.222Z,1.80
2022-07-29T07:45:11.080Z,1.97
2022-07-29T07:47:33.199Z,1.97
2022-07-29T07:50:07.145Z,1.60
2022-07-29T07:52:35.769Z,1.60
2022-07-29T07:55:04.372Z,1.90
2022-07-29T07:57:32.555Z,1.70
2022-07-29T08:00:00.851Z,1.70
2022-07-29T08:05:31.670Z,1.30
2022-07-29T08:11:10.073Z,1.80
2022-07-29T08:16:53.850Z,1.60
2022-07-29T08:19:38.442Z,1.70
2022-07-29T08:22:16.148Z,2.10
2022-07-29T08:24:57.006Z,1.50
2022-07-29T09:01:12.470Z,2.27
2022-07-29T09:03:59.580Z,1.97
2022-07-29T09:27:19.984Z,2.40
2022-07-29T09:30:12.119Z,1.90
2022-07-29T09:33:04.882Z,2.40
2022-07-29T09:35:35.344Z,2.27
2022-07-29T09:38:26.483Z,2.43
2022-07-29T09:41:05.407Z,2.67
2022-07-29T09:43:36.016Z,1.90
2022-07-29T09:46:16.651Z,2.53
2022-07-29T09:48:51.520Z,2.23
2022-07-29T09:54:26.365Z,2.13
2022-07-29T09:56:57.360Z,2.30
2022-07-29T09:59:28.149Z,2.60
2022-07-29T10:01:59.234Z,2.23
2022-07-29T10:04:40.698Z,2.43
2022-07-29T10:07:09.594Z,2.63
2022-07-29T10:09:38.857Z,2.77
2022-07-29T10:12:12.116Z,2.77
2022-07-29T10:14:41.078Z,2.47
2022-07-29T10:17:13.261Z,2.73
2022-07-29T10:19:43.709Z,2.73
2022-07-29T10:22:14.976Z,2.30
2022-07-29T10:24:44.146Z,2.40
2022-07-29T10:27:13.871Z,2.57
2022-07-29T10:29:42.673Z,2.67
2022-07-29T10:32:25.301Z,2.57
2022-07-29T10:35:21.122Z,2.37
2022-07-29T10:41:36.283Z,2.40
2022-07-29T10:44:19.371Z,2.57
2022-07-29T10:46:54.542Z,2.90
2022-07-29T10:49:27.245Z,2.70
2022-07-29T10:52:03.639Z,3.00
2022-07-29T10:54:51.046Z,3.00
2022-07-29T10:57:25.812Z,3.17
2022-07-29T11:00:32.086Z,2.70
2022-07-29T11:03:04.777Z,2.67
2022-07-29T11:05:59.649Z,3.00
2022-07-29T11:08:32.700Z,2.70
2022-07-29T11:11:52.678Z,2.73
2022-07-29T11:18:18.536Z,2.60
2022-07-29T11:20:56.267Z,2.70
2022-07-29T11:23:59.110Z,3.23
2022-07-29T11:26:31.891Z,2.00
2022-07-29T11:29:05.809Z,2.30
2022-07-29T11:31:42.585Z,2.70
2022-07-29T11:34:30.539Z,2.27
2022-07-29T11:37:34.557Z,2.70
2022-07-29T11:40:38.525Z,3.13
2022-07-29T11:43:53.387Z,2.13
2022-07-29T11:46:50.615Z,2.33
2022-07-29T11:49:32.695Z,2.40
2022-07-29T11:52:05.563Z,2.27
2022-07-29T11:54:57.384Z,2.60
2022-07-29T11:57:36.203Z,2.10
2022-07-29T12:00:28.765Z,2.23
2022-07-29T12:02:58.566Z,2.30
2022-07-29T12:05:37.792Z,2.10
2022-07-29T12:08:15.091Z,2.20
2022-07-29T12:10:50.106Z,1.97
2022-07-29T12:16:25.699Z,2.67
2022-07-29T12:19:02.239Z,2.53
2022-07-29T12:21:37.173Z,2.60
2022-07-29T12:24:16.339Z,2.33
2022-07-29T12:26:53.113Z,2.20
2022-07-29T12:29:35.379Z,2.27
2022-07-29T12:32:14.728Z,2.67
2022-07-29T12:34:51.244Z,2.10
2022-07-29T12:37:38.960Z,2.40
2022-07-29T12:40:17.725Z,2.30
2022-07-29T12:43:13.271Z,2.23
2022-07-29T12:45:43.893Z,2.57
2022-07-29T12:48:14.297Z,2.37
2022-07-29T12:50:58.611Z,2.53
2022-07-29T12:53:28.344Z,2.60
2022-07-29T12:56:15.506Z,2.50
2022-07-29T12:58:52.836Z,2.97
2022-07-29T13:01:24.024Z,2.10
2022-07-29T13:04:25.527Z,2.00
2022-07-29T13:07:01.890Z,2.30
2022-07-29T13:09:44.358Z,2.27
2022-07-29T13:12:32.337Z,2.20
2022-07-29T13:15:03.394Z,2.47
2022-07-29T13:17:43.632Z,2.37
2022-07-29T13:20:22.273Z,2.30
2022-07-29T13:22:55.325Z,2.43
2022-07-29T13:25:28.814Z,2.20
2022-07-29T13:28:00.333Z,2.43
2022-07-29T13:30:33.250Z,2.23
2022-07-29T13:33:05.520Z,2.30
2022-07-29T13:35:40.123Z,2.63
2022-07-29T13:38:12.391Z,2.70
2022-07-29T13:40:42.293Z,2.80
2022-07-29T13:43:12.973Z,2.20
2022-07-29T13:45:41.533Z,2.40
2022-07-29T13:48:11.414Z,2.50
2022-07-29T13:50:40.414Z,2.20
2022-07-29T13:53:17.551Z,2.07
2022-07-29T13:55:46.723Z,2.00
2022-07-29T13:58:18.058Z,1.80
2022-07-29T14:00:47.946Z,2.20
2022-07-29T14:03:16.600Z,2.30
2022-07-29T14:05:49.290Z,2.20
2022-07-29T14:08:22.743Z,2.60
2022-07-29T14:10:54.060Z,2.20
2022-07-29T14:13:27.845Z,2.30
2022-07-29T14:16:00.299Z,2.70
2022-07-29T14:18:32.065Z,2.80
2022-07-29T14:21:01.874Z,2.20
2022-07-29T14:23:35.693Z,2.60
2022-07-29T14:26:06.269Z,2.50
2022-07-29T14:28:42.323Z,2.20
2022-07-29T14:31:14.603Z,2.00
2022-07-29T14:33:46.225Z,2.10
2022-07-29T14:36:17.698Z,2.00
2022-07-29T14:38:49.585Z,2.00
2022-07-29T14:41:19.545Z,2.30
2022-07-29T14:43:48.944Z,2.30
2022-07-29T14:46:21.437Z,2.20
2022-07-29T14:52:04.509Z,2.20
2022-07-29T14:54:42.779Z,2.57
2022-07-29T14:57:11.528Z,2.20
2022-07-29T14:59:39.865Z,2.13
2022-07-29T15:02:11.691Z,2.53
2022-07-29T15:04:46.293Z,2.50
2022-07-29T15:07:16.912Z,2.03
2022-07-29T15:09:58.066Z,2.10
2022-07-29T15:12:28.436Z,2.57
2022-07-29T15:14:57.118Z,2.60
2022-07-29T15:17:25.538Z,2.30
2022-07-29T15:19:53.907Z,2.50
2022-07-29T15:22:22.105Z,2.07
2022-07-29T15:24:51.911Z,1.93
2022-07-29T15:27:20.463Z,2.43
2022-07-29T15:29:48.600Z,2.43
2022-07-29T15:32:17.274Z,2.40
2022-07-29T15:34:45.723Z,2.20
2022-07-29T15:37:14.767Z,2.77
2022-07-29T15:39:45.474Z,2.47
2022-07-29T15:42:30.916Z,3.00
2022-07-29T15:45:00.439Z,2.77
2022-07-29T15:47:30.438Z,2.30
2022-07-29T15:50:01.330Z,2.17
2022-07-29T15:52:31.399Z,3.10
2022-07-29T15:55:02.234Z,2.47
2022-07-29T15:57:48.221Z,2.80
2022-07-29T16:00:19.017Z,2.77
2022-07-29T16:02:53.290Z,2.70
2022-07-29T16:05:23.630Z,3.00
2022-07-29T16:07:51.830Z,2.87
2022-07-29T16:10:20.736Z,2.53
2022-07-29T16:12:51.008Z,3.27
2022-07-29T16:15:20.357Z,2.90
2022-07-29T16:17:51.009Z,2.60
2022-07-29T16:20:23.776Z,3.00
2022-07-29T16:22:52.505Z,2.80
2022-07-29T16:25:24.141Z,2.57
2022-07-29T16:28:03.776Z,2.70
2022-07-29T16:30:31.907Z,2.70
2022-07-29T16:33:00.004Z,2.97
2022-07-29T16:35:39.530Z,3.67
2022-07-29T16:38:08.449Z,3.10
2022-07-29T16:40:36.879Z,3.53
2022-07-29T16:43:07.225Z,2.93
2022-07-29T16:45:45.063Z,3.10
2022-07-29T16:48:15.216Z,3.40
2022-07-29T16:51:08.544Z,2.80
2022-07-29T16:53:38.193Z,3.23
2022-07-29T16:58:53.441Z,3.17
2022-07-29T17:01:21.791Z,2.83
2022-07-29T17:06:56.726Z,2.77
2022-07-29T17:09:29.209Z,2.33
2022-07-29T17:11:58.155Z,2.87
2022-07-29T17:28:32.283Z,2.83
2022-07-29T17:40:00.820Z,2.30
2022-07-29T17:42:31.287Z,2.90
2022-07-29T17:50:12.839Z,2.60
2022-07-29T17:52:59.325Z,2.50
2022-07-29T17:55:33.844Z,1.80
2022-07-29T17:58:16.224Z,2.00
2022-07-29T18:00:46.878Z,1.70
2022-07-29T18:03:40.004Z,1.47
2022-07-29T18:06:25.625Z,1.77
2022-07-29T18:08:54.811Z,1.13
2022-07-29T18:11:25.804Z,1.70
2022-07-29T18:13:55.321Z,1.70
2022-07-29T18:16:26.376Z,1.30
2022-07-29T18:19:02.636Z,1.50
2022-07-29T18:21:51.197Z,1.40
2022-07-29T18:24:25.902Z,1.50
2022-07-29T18:26:56.838Z,2.53
2022-07-29T18:29:25.813Z,1.60
2022-07-29T18:31:58.154Z,2.00
2022-07-29T18:34:38.306Z,1.70
2022-07-29T18:37:11.555Z,2.10
2022-07-29T18:39:44.333Z,1.80
2022-07-29T18:42:27.469Z,2.00
2022-07-29T18:51:13.316Z,1.77
2022-07-29T18:54:09.970Z,1.77
2022-07-29T18:56:52.611Z,1.90
2022-07-29T18:59:24.074Z,2.93
2022-07-29T19:01:53.537Z,2.20
2022-07-29T19:04:23.010Z,1.83
2022-07-29T19:25:56.373Z,2.27
2022-07-29T19:28:26.695Z,2.00
2022-07-29T19:30:55.637Z,2.00
2022-07-29T19:33:24.095Z,2.20
2022-07-29T19:35:56.697Z,2.30
2022-07-29T19:38:25.230Z,2.40
2022-07-29T19:40:57.183Z,2.43
2022-07-29T19:43:51.467Z,2.80
2022-07-29T19:46:14.547Z,2.60
2022-07-29T19:48:45.033Z,2.50
2022-07-29T19:51:13.448Z,3.00
2022-07-29T19:53:42.312Z,2.73
2022-07-29T19:56:24.135Z,2.73
2022-07-29T19:58:52.787Z,2.90
2022-07-29T20:01:22.349Z,2.63
2022-07-29T20:03:51.289Z,3.03
2022-07-29T20:06:21.428Z,2.80
2022-07-29T20:08:58.774Z,3.03
2022-07-29T20:11:30.655Z,2.97
2022-07-29T20:14:00.671Z,3.10
2022-07-29T20:16:31.913Z,3.20
2022-07-29T20:19:01.641Z,2.77
2022-07-29T20:21:30.963Z,2.70
2022-07-29T20:24:03.121Z,2.20
2022-07-29T20:26:31.596Z,2.47
2022-07-29T20:29:01.701Z,2.40
2022-07-29T20:31:30.706Z,2.60
2022-07-29T20:33:59.200Z,2.63
2022-07-29T20:36:27.799Z,2.50
2022-07-29T20:38:56.142Z,2.33
2022-07-29T20:41:24.483Z,2.80
2022-07-29T20:43:53.095Z,2.30
2022-07-29T20:46:23.271Z,2.50
2022-07-29T20:48:51.965Z,2.30
2022-07-29T20:51:20.236Z,2.63
2022-07-29T20:53:49.458Z,2.23
2022-07-29T20:56:18.035Z,2.37
2022-07-29T20:58:46.416Z,2.57
2022-07-29T21:01:14.969Z,3.00
2022-07-29T21:03:45.379Z,2.60
2022-07-29T21:06:15.505Z,2.80
2022-07-29T21:08:43.850Z,2.57
2022-07-29T21:11:12.068Z,2.97
2022-07-29T21:13:40.451Z,2.80
2022-07-29T21:16:14.816Z,2.73
2022-07-29T21:18:50.868Z,2.53
2022-07-29T21:21:19.247Z,3.00
2022-07-29T21:23:57.407Z,2.90
2022-07-29T21:26:27.288Z,2.80
2022-07-29T21:28:55.082Z,2.97
2022-07-29T21:31:23.415Z,3.00
2022-07-29T21:33:53.524Z,3.30
2022-07-29T21:36:47.150Z,2.77
2022-07-29T21:39:09.790Z,3.07
2022-07-29T21:41:37.846Z,2.97
2022-07-29T21:44:06.064Z,2.93
2022-07-29T21:46:34.306Z,2.93
2022-07-29T21:49:04.039Z,3.07
2022-07-29T21:51:33.029Z,3.30
2022-07-29T21:54:01.176Z,2.73
2022-07-29T21:56:33.868Z,2.93
2022-07-29T21:59:02.955Z,3.50
2022-07-29T22:01:38.967Z,3.00
2022-07-29T22:04:09.495Z,3.30
2022-07-29T22:06:37.748Z,3.30
2022-07-29T22:09:06.065Z,3.20
2022-07-29T22:11:36.408Z,3.20
2022-07-29T22:14:04.783Z,2.63
2022-07-29T22:16:33.390Z,2.87
2022-07-29T22:19:03.748Z,2.83
2022-07-29T22:21:33.501Z,2.70
2022-07-29T22:24:02.670Z,2.33
2022-07-29T22:26:31.093Z,2.30
2022-07-29T22:28:59.319Z,2.57
2022-07-29T22:31:27.558Z,2.30
2022-07-29T22:33:55.768Z,2.67
2022-07-29T22:36:23.768Z,2.30
2022-07-29T22:38:53.327Z,2.30
2022-07-29T22:41:21.455Z,2.70
2022-07-29T22:43:49.561Z,2.23
2022-07-29T22:46:17.726Z,2.30
2022-07-29T22:48:46.177Z,2.40
2022-07-29T22:51:14.346Z,2.13
2022-07-29T22:53:42.411Z,2.27
2022-07-29T22:56:12.276Z,2.30
2022-07-29T22:58:40.457Z,2.40
2022-07-29T23:01:09.013Z,2.50
2022-07-29T23:03:38.049Z,2.00
2022-07-29T23:06:06.418Z,2.13
2022-07-29T23:08:34.545Z,1.93
2022-07-29T23:11:02.627Z,2.33
2022-07-29T23:13:32.858Z,2.33
2022-07-29T23:16:01.834Z,2.57
2022-07-29T23:18:29.973Z,2.37
2022-07-29T23:20:58.180Z,2.00
2022-07-29T23:23:27.251Z,2.27
2022-07-29T23:26:00.722Z,2.77
2022-07-29T23:28:29.101Z,2.37
2022-07-29T23:30:58.592Z,2.90
2022-07-29T23:33:26.809Z,2.80
2022-07-29T23:35:54.878Z,2.60
2022-07-29T23:38:23.016Z,2.00
2022-07-29T23:40:51.727Z,2.60
2022-07-29T23:43:19.841Z,2.60
2022-07-29T23:45:48.673Z,2.30
2022-07-29T23:48:18.427Z,3.10
2022-07-29T23:50:46.705Z,2.67
2022-07-29T23:53:14.878Z,2.60
2022-07-29T23:55:43.553Z,2.50
2022-07-29T23:58:11.532Z,2.63
